Julian, CA

1:22 PM PDT on August 23, 2014 (GMT -0700)
Pinezanita RV Park & Campgrounds | Change Station
CLOSE
Current Station
Personal Weather Station
Location: Julian, CA
Elevation: 4698 ft
Nearby Weather Stations

Elev 4698 ft 33.04 °N, 116.56 °W | Updated 4 seconds ago

Clear
Clear
78.3 °F
Feels Like 78 °F
N
13.0
Wind Variable Wind from SSW
Gusts 24.0 mph

Today
High -- | Low -- °F
--% Chance of Precip.
Yesterday
High -- | Low -- °F
Precip. -- in
6:14 AM 7:22 PM
Waning Crescent, 3% visible
Pressure 29.89 in
Visibility -9999.0 miles
Clouds
Heat Index 78 °F
Dew Point 35 °F
Humidity 21%
Rainfall 0.00 in
Snow Depth Not available.
UV Not available.
Pollen 5.30 out of 12
Air Quality Not available.
Flu Activity Not available.
METAR KCZZ 231952Z AUTO 24013G18KT 28/00 A2998 RMK AO1 SLP121 T02830000

More Conditions Fewer Conditions

Pressure 29.89 in
Visibility -9999.0 miles
Clouds
Heat Index 78 °F
Dew Point 35 °F
Humidity 21%
Rainfall 0.00 in
Snow Depth Not available.
UV Not available.
Pollen 5.30 out of 12
Air Quality Not available.
Flu Activity Not available.
METAR KCZZ 231952Z AUTO 24013G18KT 28/00 A2998 RMK AO1 SLP121 T02830000

More Conditions Fewer Conditions

10-Day Weather Forecast

Almanac

Astronomy

Aug. 23, 2014 Rise Set
Actual Time 6:14 AM PDT 7:22 PM PDT
Civil Twilight 5:49 AM PDT 7:47 PM PDT
Nautical Twilight 5:18 AM PDT 8:18 PM PDT
Astronomical Twilight 4:47 AM PDT 8:49 PM PDT
Moon 4:36 AM PDT 6:08 PM PDT
Length of Visible Light 13h 58m
Length of Day
13h 07m
Tomorrow will be 1m 53s shorter.
Waning Crescent, 3% of the Moon is Illuminated
Today
Waning Crescent
Aug 25
New
Sep 2
First Quarter
Sep 8
Full
Sep 15
Last Quarter

Today's Extremes

State Highs State Lows

Community

WunderPhotos

Upload Photos

1,746,613 photos uploaded!

WunderBlogs® & News

Nearby

Snow Depth

Station Depth Elevation
Leavitt Lake 0 in 9400 ft
Sonora Pass 0 in 8800 ft
Summit Meadow 0 in 9122 ft
Blue Lakes 0 in 8000 ft
Forestdale Creek 0 in 8029 ft

Earthquake Activity

City Distance Mag. Time & Date
Big Bear City, California 90 miles 3.7 9:55 PM PDT
2014-08-17
Alberto Oviedo Mota, Mexico 94 miles 3.5 3:59 PM PDT
2014-08-17
Alberto Oviedo Mota, Mexico 94 miles 3.2 3:59 PM PDT
2014-08-17
Minimum magnitude displayed is 2.5.

Coastal Water Temperatures

Place Temperature
No Stations Reporting

Nearby Weather Stations